createdAt,value
2023-04-09T00:01:33.897Z,8.00
2023-04-09T00:04:00.939Z,8.01
2023-04-09T00:06:27.678Z,8.04
2023-04-09T00:08:54.391Z,8.06
2023-04-09T00:11:21.650Z,8.08
2023-04-09T00:13:48.296Z,8.08
2023-04-09T00:16:14.917Z,8.09
2023-04-09T00:18:41.816Z,8.09
2023-04-09T00:21:08.897Z,8.10
2023-04-09T00:23:36.117Z,8.09
2023-04-09T00:26:02.747Z,8.07
2023-04-09T00:28:29.270Z,8.02
2023-04-09T00:30:55.971Z,8.00
2023-04-09T00:33:22.536Z,7.98
2023-04-09T00:35:49.103Z,7.96
2023-04-09T00:38:15.717Z,7.97
2023-04-09T00:40:42.341Z,7.96
2023-04-09T00:43:09.194Z,7.97
2023-04-09T00:45:36.584Z,7.98
2023-04-09T00:48:03.325Z,7.99
2023-04-09T00:50:29.899Z,8.01
2023-04-09T00:52:56.568Z,8.02
2023-04-09T00:55:23.669Z,8.01
2023-04-09T00:57:50.327Z,8.01
2023-04-09T01:00:16.973Z,8.01
2023-04-09T01:02:44.517Z,8.00
2023-04-09T01:05:12.754Z,8.00
2023-04-09T01:13:28.659Z,8.08
2023-04-09T01:15:57.580Z,8.04
2023-04-09T01:21:07.004Z,7.93
2023-04-09T01:26:59.962Z,7.83
2023-04-09T01:29:30.556Z,7.79
2023-04-09T01:31:58.586Z,7.73
2023-04-09T01:34:26.279Z,7.69
2023-04-09T01:36:57.134Z,7.66
2023-04-09T01:39:24.103Z,7.60
2023-04-09T01:41:51.509Z,7.60
2023-04-09T01:44:18.971Z,7.54
2023-04-09T01:46:48.308Z,7.44
2023-04-09T01:49:15.960Z,7.37
2023-04-09T01:51:43.363Z,7.31
2023-04-09T01:54:09.953Z,7.26
2023-04-09T01:56:45.011Z,7.23
2023-04-09T01:59:12.094Z,7.13
2023-04-09T02:01:45.772Z,7.11
2023-04-09T02:04:35.610Z,7.02
2023-04-09T02:07:06.024Z,6.96
2023-04-09T02:09:36.527Z,7.00
2023-04-09T02:12:05.859Z,7.01
2023-04-09T02:14:33.636Z,7.04
2023-04-09T02:17:01.498Z,7.03
2023-04-09T02:19:45.854Z,7.03
2023-04-09T02:22:13.102Z,7.07
2023-04-09T02:24:40.640Z,7.06
2023-04-09T02:27:08.006Z,6.99
2023-04-09T02:29:34.609Z,7.03
2023-04-09T02:32:01.296Z,7.02
2023-04-09T02:34:28.213Z,7.04
2023-04-09T02:36:54.805Z,7.04
2023-04-09T02:39:21.354Z,6.96
2023-04-09T02:41:47.910Z,6.92
2023-04-09T02:44:14.501Z,6.93
2023-04-09T02:46:41.837Z,6.90
2023-04-09T02:49:08.466Z,6.82
2023-04-09T02:51:36.049Z,6.81
2023-04-09T02:54:03.183Z,6.77
2023-04-09T02:56:29.820Z,6.69
2023-04-09T02:58:56.400Z,6.73
2023-04-09T03:01:23.130Z,6.64
2023-04-09T03:03:49.992Z,6.62
2023-04-09T03:06:18.420Z,6.64
2023-04-09T03:08:45.624Z,6.63
2023-04-09T03:11:12.335Z,6.63
2023-04-09T03:13:38.879Z,6.65
2023-04-09T03:16:05.932Z,6.55
2023-04-09T03:18:32.540Z,6.53
2023-04-09T03:20:59.061Z,6.60
2023-04-09T03:23:25.687Z,6.59
2023-04-09T03:26:02.074Z,6.52
2023-04-09T03:28:28.794Z,6.48
2023-04-09T03:30:55.348Z,6.55
2023-04-09T03:33:21.882Z,6.58
2023-04-09T03:35:48.487Z,6.65
2023-04-09T03:38:15.082Z,6.71
2023-04-09T03:40:42.764Z,6.70
2023-04-09T03:43:09.351Z,6.74
2023-04-09T03:45:35.901Z,6.76
2023-04-09T03:48:02.523Z,6.76
2023-04-09T03:50:29.098Z,6.80
2023-04-09T03:52:55.855Z,6.84
2023-04-09T03:55:22.486Z,6.86
2023-04-09T03:57:49.096Z,6.86
2023-04-09T04:00:15.743Z,6.89
2023-04-09T04:02:42.519Z,6.90
2023-04-09T04:05:09.373Z,6.92
2023-04-09T04:07:37.048Z,6.90
2023-04-09T04:10:06.683Z,6.93
2023-04-09T04:12:33.246Z,6.96
2023-04-09T04:15:01.395Z,6.96
2023-04-09T04:17:27.997Z,6.96
2023-04-09T04:19:54.648Z,6.99
2023-04-09T04:22:21.250Z,7.00
2023-04-09T04:24:47.826Z,7.03
2023-04-09T04:27:14.323Z,7.02
2023-04-09T04:29:40.951Z,7.03
2023-04-09T04:32:07.527Z,7.02
2023-04-09T04:34:34.072Z,7.02
2023-04-09T04:37:00.693Z,6.96
2023-04-09T04:39:27.202Z,6.94
2023-04-09T04:41:53.719Z,7.00
2023-04-09T04:44:20.270Z,6.98
2023-04-09T04:46:46.789Z,6.99
2023-04-09T04:49:13.303Z,6.99
2023-04-09T04:51:39.843Z,7.02
2023-04-09T04:54:06.377Z,7.01
2023-04-09T04:56:32.904Z,6.96
2023-04-09T04:59:00.806Z,7.00
2023-04-09T05:01:27.503Z,6.96
2023-04-09T05:03:54.295Z,6.93
2023-04-09T05:06:20.899Z,6.89
2023-04-09T05:08:47.424Z,6.91
2023-04-09T05:11:15.255Z,6.91
2023-04-09T05:13:41.938Z,6.92
2023-04-09T05:16:08.553Z,6.89
2023-04-09T05:18:35.133Z,6.84
2023-04-09T05:21:01.752Z,6.84
2023-04-09T05:23:28.310Z,6.80
2023-04-09T05:25:54.894Z,6.76
2023-04-09T05:28:21.508Z,6.73
2023-04-09T05:30:48.302Z,6.64
2023-04-09T05:33:14.927Z,6.61
2023-04-09T05:35:41.550Z,6.54
2023-04-09T05:38:08.172Z,6.40
2023-04-09T05:40:35.523Z,6.37
2023-04-09T05:43:02.213Z,6.40
2023-04-09T05:45:28.822Z,6.40
2023-04-09T05:47:55.380Z,6.45
2023-04-09T05:50:22.139Z,6.46
2023-04-09T05:52:48.740Z,6.51
2023-04-09T05:55:15.471Z,6.55
2023-04-09T05:57:42.261Z,6.57
2023-04-09T06:00:09.701Z,6.57
2023-04-09T06:02:36.507Z,6.61
2023-04-09T06:05:03.276Z,6.64
2023-04-09T06:07:29.874Z,6.65
2023-04-09T06:09:56.668Z,6.69
2023-04-09T06:12:23.269Z,6.70
2023-04-09T06:14:49.855Z,6.68
2023-04-09T06:17:16.425Z,6.68
2023-04-09T06:19:43.770Z,6.67
2023-04-09T06:22:11.151Z,6.72
2023-04-09T06:24:37.679Z,6.70
2023-04-09T06:27:04.408Z,6.75
2023-04-09T06:29:31.202Z,6.72
2023-04-09T06:31:57.869Z,6.70
2023-04-09T06:34:24.524Z,6.72
2023-04-09T06:36:51.178Z,6.82
2023-04-09T06:39:17.710Z,6.86
2023-04-09T06:41:44.271Z,6.88
2023-04-09T06:44:10.793Z,6.86
2023-04-09T06:46:37.457Z,6.90
2023-04-09T06:49:04.009Z,6.97
2023-04-09T06:51:30.526Z,7.02
2023-04-09T06:53:57.140Z,7.00
2023-04-09T06:56:23.694Z,7.09
2023-04-09T06:58:50.247Z,7.14
2023-04-09T07:01:17.472Z,7.14
2023-04-09T07:03:44.738Z,7.14
2023-04-09T07:06:11.398Z,7.09
2023-04-09T07:08:37.920Z,7.08
2023-04-09T07:11:04.530Z,7.17
2023-04-09T07:13:31.388Z,7.15
2023-04-09T07:15:57.971Z,7.19
2023-04-09T07:18:24.629Z,7.19
2023-04-09T07:20:52.608Z,7.15
2023-04-09T07:23:19.446Z,7.22
2023-04-09T07:25:45.960Z,7.32
2023-04-09T07:28:12.636Z,7.42
2023-04-09T07:30:40.042Z,7.42
2023-04-09T07:33:06.763Z,7.46
2023-04-09T07:35:34.826Z,7.56
2023-04-09T07:38:01.429Z,7.57
2023-04-09T07:40:27.970Z,7.57
2023-04-09T07:42:55.746Z,7.60
2023-04-09T07:45:22.270Z,7.60
2023-04-09T07:47:48.833Z,7.71
2023-04-09T07:50:15.929Z,7.84
2023-04-09T07:52:42.775Z,8.05
2023-04-09T07:55:09.542Z,8.15
2023-04-09T07:57:36.948Z,8.23
2023-04-09T08:00:04.278Z,8.31
2023-04-09T08:02:31.234Z,8.37
2023-04-09T08:04:58.305Z,8.28
2023-04-09T08:07:25.061Z,8.42
2023-04-09T08:09:51.638Z,9.05
2023-04-09T08:12:18.361Z,9.79
2023-04-09T08:14:44.929Z,10.51
2023-04-09T08:17:11.568Z,11.10
2023-04-09T08:19:40.449Z,11.36
2023-04-09T08:22:08.165Z,11.53
2023-04-09T08:24:35.471Z,11.90
2023-04-09T08:27:02.098Z,12.36
2023-04-09T08:29:29.325Z,12.53
2023-04-09T08:31:56.295Z,12.65
2023-04-09T08:34:23.073Z,12.77
2023-04-09T08:36:50.195Z,12.80
2023-04-09T08:39:20.178Z,12.99
2023-04-09T08:41:48.519Z,13.29
2023-04-09T08:44:15.190Z,13.39
2023-04-09T08:46:42.042Z,13.29
2023-04-09T08:49:10.347Z,13.26
2023-04-09T08:51:37.014Z,13.16
2023-04-09T08:54:04.756Z,13.10
2023-04-09T08:56:32.189Z,12.82
2023-04-09T08:58:58.922Z,12.66
2023-04-09T09:01:28.942Z,12.49
2023-04-09T09:06:41.132Z,12.60
2023-04-09T09:09:11.011Z,12.51
2023-04-09T09:11:39.660Z,12.52
2023-04-09T09:14:08.136Z,12.56
2023-04-09T09:16:36.484Z,12.45
2023-04-09T09:19:03.489Z,12.59
2023-04-09T09:21:30.249Z,12.61
2023-04-09T09:23:57.283Z,12.64
2023-04-09T09:26:26.533Z,12.84
2023-04-09T09:28:53.867Z,12.75
2023-04-09T09:31:22.233Z,12.59
2023-04-09T09:33:50.519Z,12.71
2023-04-09T09:36:31.818Z,12.64
2023-04-09T09:39:02.206Z,12.76
2023-04-09T09:41:29.111Z,12.91
2023-04-09T09:43:55.890Z,13.13
2023-04-09T09:46:22.870Z,13.05
2023-04-09T09:48:49.865Z,12.94
2023-04-09T09:51:17.188Z,12.89
2023-04-09T09:53:46.584Z,12.85
2023-04-09T09:56:17.091Z,12.75
2023-04-09T10:01:26.619Z,12.64
2023-04-09T10:03:54.120Z,12.70
2023-04-09T10:06:21.574Z,12.73
2023-04-09T10:08:49.946Z,12.74
2023-04-09T10:11:17.453Z,12.77
2023-04-09T10:13:51.167Z,12.97
2023-04-09T10:16:18.848Z,13.23
2023-04-09T10:18:45.537Z,13.08
2023-04-09T10:21:25.482Z,13.33
2023-04-09T10:23:52.492Z,13.57
2023-04-09T10:26:19.909Z,13.79
2023-04-09T10:28:46.501Z,13.69
2023-04-09T10:31:14.160Z,13.88
2023-04-09T10:33:43.596Z,13.95
2023-04-09T10:36:12.807Z,14.02
2023-04-09T10:38:41.541Z,14.05
2023-04-09T10:41:16.302Z,14.10
2023-04-09T10:43:43.567Z,14.05
2023-04-09T10:46:31.206Z,14.00
2023-04-09T10:51:54.016Z,14.06
2023-04-09T10:54:44.054Z,14.17
2023-04-09T10:57:21.123Z,14.30
2023-04-09T10:59:50.443Z,14.52
2023-04-09T11:07:35.261Z,14.81
2023-04-09T11:10:01.804Z,15.01
2023-04-09T11:12:28.367Z,15.09
2023-04-09T11:14:54.979Z,15.01
2023-04-09T11:17:21.582Z,15.00
2023-04-09T11:19:48.558Z,15.15
2023-04-09T11:22:16.709Z,15.19
2023-04-09T11:24:44.209Z,14.97
2023-04-09T11:27:10.849Z,14.95
2023-04-09T11:29:37.423Z,15.00
2023-04-09T11:32:05.853Z,15.06
2023-04-09T11:34:32.528Z,15.11
2023-04-09T11:36:59.913Z,15.12
2023-04-09T11:39:26.515Z,15.11
2023-04-09T11:41:53.391Z,15.18
2023-04-09T11:44:21.947Z,15.35
2023-04-09T11:46:49.302Z,15.41
2023-04-09T11:49:16.621Z,15.33
2023-04-09T11:51:43.369Z,15.46
2023-04-09T11:54:13.360Z,15.56
2023-04-09T11:56:39.969Z,15.63
2023-04-09T11:59:06.696Z,15.68
2023-04-09T12:01:33.792Z,15.67
2023-04-09T12:04:01.454Z,15.63
2023-04-09T12:06:28.662Z,15.57
2023-04-09T12:08:57.557Z,15.66
2023-04-09T12:11:32.536Z,15.75
2023-04-09T12:14:01.269Z,15.81
2023-04-09T12:16:31.839Z,15.86
2023-04-09T12:19:14.109Z,15.88
2023-04-09T12:24:25.576Z,16.24
2023-04-09T12:26:52.281Z,16.01
2023-04-09T12:29:21.380Z,15.67
2023-04-09T12:31:48.314Z,15.86
2023-04-09T12:34:14.917Z,15.91
2023-04-09T12:36:41.807Z,15.97
2023-04-09T12:39:09.762Z,16.05
2023-04-09T12:41:36.546Z,16.24
2023-04-09T12:44:03.197Z,16.27
2023-04-09T12:46:29.829Z,16.39
2023-04-09T12:48:56.615Z,16.42
2023-04-09T12:51:23.797Z,16.42
2023-04-09T12:53:50.434Z,16.39
2023-04-09T12:56:17.097Z,16.33
2023-04-09T12:58:43.677Z,16.37
2023-04-09T13:01:10.322Z,16.40
2023-04-09T13:03:37.100Z,16.28
2023-04-09T13:06:04.191Z,16.16
2023-04-09T13:08:31.177Z,16.08
2023-04-09T13:10:57.699Z,16.13
2023-04-09T13:13:25.076Z,16.22
2023-04-09T13:15:52.193Z,16.27
2023-04-09T13:18:18.726Z,16.37
2023-04-09T13:20:45.300Z,16.52
2023-04-09T13:23:11.889Z,16.63
2023-04-09T13:25:38.522Z,16.67
2023-04-09T13:28:05.091Z,16.64
2023-04-09T13:30:32.017Z,16.54
2023-04-09T13:32:58.637Z,16.56
2023-04-09T13:35:25.304Z,16.56
2023-04-09T13:37:51.916Z,16.53
2023-04-09T13:40:18.523Z,16.60
2023-04-09T13:42:45.371Z,16.59
2023-04-09T13:45:11.910Z,16.52
2023-04-09T13:47:38.826Z,16.58
2023-04-09T13:50:06.381Z,16.60
2023-04-09T13:52:33.265Z,16.56
2023-04-09T13:54:59.814Z,16.57
2023-04-09T13:57:27.357Z,16.57
2023-04-09T13:59:53.904Z,16.61
2023-04-09T14:02:20.813Z,16.59
2023-04-09T14:04:47.587Z,16.66
2023-04-09T14:07:14.142Z,16.64
2023-04-09T14:09:40.642Z,16.63
2023-04-09T14:12:07.172Z,16.71
2023-04-09T14:14:33.782Z,16.77
2023-04-09T14:17:00.289Z,16.85
2023-04-09T14:19:26.790Z,16.94
2023-04-09T14:21:55.254Z,17.02
2023-04-09T14:24:23.157Z,16.94
2023-04-09T14:26:52.324Z,16.90
2023-04-09T14:29:19.584Z,16.85
2023-04-09T14:31:47.269Z,16.75
2023-04-09T14:34:14.134Z,16.76
2023-04-09T14:36:40.808Z,16.70
2023-04-09T14:39:07.383Z,16.61
2023-04-09T14:41:34.402Z,16.53
2023-04-09T14:44:01.078Z,16.49
2023-04-09T14:46:27.744Z,16.45
2023-04-09T14:48:54.821Z,16.40
2023-04-09T14:51:21.618Z,16.41
2023-04-09T14:53:48.599Z,16.42
2023-04-09T14:56:15.404Z,16.47
2023-04-09T14:58:41.938Z,16.52
2023-04-09T15:01:08.543Z,16.55
2023-04-09T15:03:35.495Z,16.47
2023-04-09T15:06:02.267Z,16.25
2023-04-09T15:08:28.859Z,16.16
2023-04-09T15:10:55.490Z,16.10
2023-04-09T15:13:22.042Z,16.05
2023-04-09T15:15:48.682Z,16.09
2023-04-09T15:18:15.514Z,16.09
2023-04-09T15:20:43.623Z,16.07
2023-04-09T15:23:11.077Z,16.12
2023-04-09T15:25:38.318Z,16.19
2023-04-09T15:28:05.987Z,16.19
2023-04-09T15:30:32.727Z,16.19
2023-04-09T15:32:59.296Z,16.13
2023-04-09T15:35:29.335Z,16.15
2023-04-09T15:37:57.037Z,16.12
2023-04-09T15:40:23.621Z,16.13
2023-04-09T15:42:50.211Z,16.12
2023-04-09T15:45:17.429Z,16.10
2023-04-09T15:47:45.042Z,16.04
2023-04-09T15:50:11.703Z,16.01
2023-04-09T15:52:38.286Z,16.02
2023-04-09T15:55:05.571Z,15.96
2023-04-09T15:57:32.325Z,15.94
2023-04-09T15:59:58.938Z,15.93
2023-04-09T16:02:26.218Z,15.98
2023-04-09T16:04:52.947Z,15.94
2023-04-09T16:07:19.694Z,15.85
2023-04-09T16:09:46.591Z,15.77
2023-04-09T16:12:13.402Z,15.70
2023-04-09T16:14:40.423Z,15.58
2023-04-09T16:17:07.096Z,15.62
2023-04-09T16:19:33.782Z,15.54
2023-04-09T16:22:00.657Z,15.47
2023-04-09T16:24:28.510Z,15.45
2023-04-09T16:26:55.157Z,15.42
2023-04-09T16:29:21.869Z,15.33
2023-04-09T16:31:48.531Z,15.33
2023-04-09T16:34:15.758Z,15.23
2023-04-09T16:36:42.539Z,15.09
2023-04-09T16:39:09.133Z,15.14
2023-04-09T16:41:37.048Z,15.10
2023-04-09T16:44:04.027Z,15.00
2023-04-09T16:46:30.863Z,15.01
2023-04-09T16:48:57.726Z,15.03
2023-04-09T16:51:24.287Z,15.04
2023-04-09T16:53:50.810Z,15.05
2023-04-09T16:56:17.350Z,15.08
2023-04-09T16:58:44.865Z,15.05
2023-04-09T17:01:11.622Z,15.00
2023-04-09T17:03:38.231Z,14.95
2023-04-09T17:06:05.094Z,14.98
2023-04-09T17:08:31.827Z,14.96
2023-04-09T17:11:02.505Z,14.90
2023-04-09T17:13:31.628Z,14.85
2023-04-09T17:15:58.339Z,14.84
2023-04-09T17:18:24.966Z,14.81
2023-04-09T17:20:52.116Z,14.75
2023-04-09T17:23:18.763Z,14.74
2023-04-09T17:25:46.151Z,14.72
2023-04-09T17:28:12.945Z,14.72
2023-04-09T17:30:39.849Z,14.68
2023-04-09T17:33:06.483Z,14.57
2023-04-09T17:35:33.208Z,14.54
2023-04-09T17:38:01.069Z,14.53
2023-04-09T17:40:28.235Z,14.47
2023-04-09T17:42:56.029Z,14.46
2023-04-09T17:45:22.710Z,14.42
2023-04-09T17:47:51.168Z,14.44
2023-04-09T17:50:17.950Z,14.38
2023-04-09T17:52:44.498Z,14.39
2023-04-09T17:55:12.468Z,14.38
2023-04-09T17:57:40.162Z,14.34
2023-04-09T18:00:07.621Z,14.27
2023-04-09T18:02:35.241Z,14.26
2023-04-09T18:05:04.814Z,14.20
2023-04-09T18:07:33.999Z,14.20
2023-04-09T18:10:02.149Z,14.18
2023-04-09T18:12:28.892Z,14.18
2023-04-09T18:14:55.582Z,14.13
2023-04-09T18:17:22.262Z,14.10
2023-04-09T18:19:49.230Z,14.05
2023-04-09T18:22:16.587Z,14.04
2023-04-09T18:24:43.217Z,13.98
2023-04-09T18:27:09.973Z,13.99
2023-04-09T18:29:36.716Z,13.96
2023-04-09T18:32:03.417Z,13.92
2023-04-09T18:34:29.999Z,13.91
2023-04-09T18:36:56.545Z,13.87
2023-04-09T18:39:23.114Z,13.81
2023-04-09T18:41:49.786Z,13.76
2023-04-09T18:44:16.622Z,13.68
2023-04-09T18:46:43.416Z,13.69
2023-04-09T18:49:10.108Z,13.66
2023-04-09T18:51:36.746Z,13.64
2023-04-09T18:54:03.518Z,13.59
2023-04-09T18:56:30.425Z,13.53
2023-04-09T18:58:56.970Z,13.50
2023-04-09T19:01:23.835Z,13.43
2023-04-09T19:03:50.658Z,13.41
2023-04-09T19:06:18.937Z,13.37
2023-04-09T19:08:47.527Z,13.35
2023-04-09T19:11:14.865Z,13.32
2023-04-09T19:13:41.579Z,13.24
2023-04-09T19:16:09.462Z,13.17
2023-04-09T19:18:37.382Z,13.17
2023-04-09T19:21:05.275Z,13.15
2023-04-09T19:23:34.088Z,13.06
2023-04-09T19:26:01.878Z,13.05
2023-04-09T19:28:28.693Z,13.05
2023-04-09T19:30:55.444Z,13.01
2023-04-09T19:33:23.458Z,12.97
2023-04-09T19:35:51.315Z,12.98
2023-04-09T19:38:19.007Z,12.92
2023-04-09T19:40:46.347Z,12.87
2023-04-09T19:43:13.365Z,12.83
2023-04-09T19:45:40.959Z,12.83
2023-04-09T19:48:07.702Z,12.79
2023-04-09T19:50:38.508Z,12.78
2023-04-09T19:53:06.111Z,12.68
2023-04-09T19:55:34.142Z,12.68
2023-04-09T19:58:01.512Z,12.63
2023-04-09T20:00:28.351Z,12.57
2023-04-09T20:02:55.929Z,12.58
2023-04-09T20:05:22.987Z,12.56
2023-04-09T20:07:50.646Z,12.52
2023-04-09T20:10:17.476Z,12.52
2023-04-09T20:12:47.517Z,12.50
2023-04-09T20:15:14.625Z,12.42
2023-04-09T20:17:41.958Z,12.36
2023-04-09T20:20:08.892Z,12.36
2023-04-09T20:22:35.606Z,12.32
2023-04-09T20:25:02.417Z,12.27
2023-04-09T20:27:29.037Z,12.24
2023-04-09T20:29:56.452Z,12.18
2023-04-09T20:32:23.100Z,12.12
2023-04-09T20:34:49.747Z,12.07
2023-04-09T20:37:16.327Z,12.12
2023-04-09T20:39:42.871Z,12.06
2023-04-09T20:42:09.455Z,12.02
2023-04-09T20:44:36.220Z,12.03
2023-04-09T20:47:02.799Z,12.04
2023-04-09T20:49:29.426Z,11.95
2023-04-09T20:51:56.828Z,11.92
2023-04-09T20:54:23.439Z,11.85
2023-04-09T20:56:50.336Z,11.85
2023-04-09T20:59:18.343Z,11.76
2023-04-09T21:01:45.165Z,11.76
2023-04-09T21:04:11.922Z,11.76
2023-04-09T21:06:38.568Z,11.77
2023-04-09T21:09:05.077Z,11.70
2023-04-09T21:11:31.723Z,11.68
2023-04-09T21:13:58.590Z,11.62
2023-04-09T21:16:27.248Z,11.64
2023-04-09T21:18:54.167Z,11.62
2023-04-09T21:21:21.426Z,11.64
2023-04-09T21:23:47.971Z,11.62
2023-04-09T21:26:15.150Z,11.63
2023-04-09T21:28:41.753Z,11.61
2023-04-09T21:31:11.163Z,11.55
2023-04-09T21:33:39.260Z,11.56
2023-04-09T21:36:07.917Z,11.53
2023-04-09T21:38:34.770Z,11.47
2023-04-09T21:41:01.847Z,11.46
2023-04-09T21:43:29.187Z,11.40
2023-04-09T21:45:57.151Z,11.40
2023-04-09T21:48:24.203Z,11.39
2023-04-09T21:50:50.919Z,11.30
2023-04-09T21:53:17.570Z,11.25
2023-04-09T21:55:44.185Z,11.26
2023-04-09T21:58:11.968Z,11.24
2023-04-09T22:00:38.576Z,11.21
2023-04-09T22:03:05.297Z,11.26
2023-04-09T22:05:34.390Z,11.27
2023-04-09T22:08:01.148Z,11.22
2023-04-09T22:10:28.121Z,11.18
2023-04-09T22:12:55.442Z,11.17
2023-04-09T22:15:22.061Z,11.14
2023-04-09T22:17:48.774Z,11.12
2023-04-09T22:20:15.517Z,11.17
2023-04-09T22:22:42.512Z,11.15
2023-04-09T22:25:11.166Z,11.10
2023-04-09T22:27:38.234Z,11.14
2023-04-09T22:30:05.812Z,11.09
2023-04-09T22:32:33.557Z,11.12
2023-04-09T22:35:00.292Z,11.15
2023-04-09T22:37:27.743Z,11.10
2023-04-09T22:39:54.351Z,11.03
2023-04-09T22:42:21.010Z,11.04
2023-04-09T22:44:47.577Z,11.00
2023-04-09T22:47:14.118Z,11.02
2023-04-09T22:49:40.680Z,11.08
2023-04-09T22:52:08.409Z,11.00
2023-04-09T22:54:34.988Z,10.95
2023-04-09T22:57:02.032Z,10.92
2023-04-09T22:59:37.298Z,10.93
2023-04-09T23:02:06.708Z,10.94
2023-04-09T23:04:34.863Z,10.96
2023-04-09T23:07:02.311Z,10.92
2023-04-09T23:09:30.324Z,10.92
2023-04-09T23:11:57.177Z,10.91
2023-04-09T23:14:23.772Z,10.86
2023-04-09T23:16:50.430Z,10.88
2023-04-09T23:19:17.094Z,10.85
2023-04-09T23:21:43.639Z,10.80
2023-04-09T23:24:10.446Z,10.85
2023-04-09T23:26:36.974Z,10.76
2023-04-09T23:29:03.564Z,10.74
2023-04-09T23:31:30.158Z,10.85
2023-04-09T23:33:56.690Z,10.79
2023-04-09T23:36:24.321Z,10.82
2023-04-09T23:38:51.256Z,10.82
2023-04-09T23:41:17.876Z,10.80
2023-04-09T23:43:44.427Z,10.79
2023-04-09T23:46:10.989Z,10.78
2023-04-09T23:48:37.578Z,10.80
2023-04-09T23:51:04.354Z,10.84
2023-04-09T23:53:30.879Z,10.84
2023-04-09T23:55:57.513Z,10.83
2023-04-09T23:58:24.213Z,10.82
